createdAt,value
2022-11-27T00:01:34.897Z,99574.78
2022-11-27T00:04:01.886Z,99575.78
2022-11-27T00:06:30.361Z,99569.94
2022-11-27T00:09:03.696Z,99561.28
2022-11-27T00:11:32.006Z,99560.44
2022-11-27T00:13:59.460Z,99558.53
2022-11-27T00:16:28.095Z,99560.31
2022-11-27T00:18:54.676Z,99561.53
2022-11-27T00:21:29.181Z,99563.44
2022-11-27T00:23:58.245Z,99563.38
2022-11-27T00:26:26.501Z,99559.16
2022-11-27T00:28:54.111Z,99550.63
2022-11-27T00:31:30.774Z,99558.03
2022-11-27T00:33:59.126Z,99552.34
2022-11-27T00:36:31.554Z,99550.22
2022-11-27T00:38:58.861Z,99543.38
2022-11-27T00:41:29.313Z,99542.69
2022-11-27T00:43:57.264Z,99546.97
2022-11-27T00:46:29.560Z,99534.69
2022-11-27T00:49:01.659Z,99539.88
2022-11-27T00:51:29.677Z,99535.47
2022-11-27T00:53:56.805Z,99521.53
2022-11-27T00:56:28.016Z,99521.72
2022-11-27T00:58:55.646Z,99521.50
2022-11-27T01:01:30.081Z,99526.47
2022-11-27T01:03:59.424Z,99521.69
2022-11-27T01:06:27.187Z,99522.94
2022-11-27T01:08:54.301Z,99520.47
2022-11-27T01:11:28.765Z,99518.41
2022-11-27T01:13:59.239Z,99515.75
2022-11-27T01:16:28.938Z,99515.81
2022-11-27T01:18:58.948Z,99519.94
2022-11-27T01:21:29.613Z,99530.69
2022-11-27T01:23:56.609Z,99537.78
2022-11-27T01:26:23.264Z,99530.22
2022-11-27T01:28:53.967Z,99540.78
2022-11-27T01:31:24.732Z,99537.44
2022-11-27T01:33:57.854Z,99529.78
2022-11-27T01:36:25.024Z,99536.78
2022-11-27T01:38:51.930Z,99534.31
2022-11-27T01:41:25.918Z,99536.13
2022-11-27T01:44:01.423Z,99535.47
2022-11-27T01:46:42.495Z,99526.81
2022-11-27T01:49:11.893Z,99530.22
2022-11-27T01:51:49.984Z,99521.78
2022-11-27T01:54:20.277Z,99519.00
2022-11-27T01:56:52.140Z,99519.88
2022-11-27T01:59:19.444Z,99518.03
2022-11-27T02:01:46.253Z,99514.72
2022-11-27T02:04:13.130Z,99521.78
2022-11-27T02:06:40.051Z,99524.56
2022-11-27T02:09:06.959Z,99528.78
2022-11-27T02:11:50.474Z,99524.56
2022-11-27T02:14:37.206Z,99524.03
2022-11-27T02:17:06.348Z,99522.13
2022-11-27T02:20:11.914Z,99520.31
2022-11-27T02:23:15.080Z,99520.59
2022-11-27T02:26:31.550Z,99509.66
2022-11-27T02:29:09.102Z,99502.94
2022-11-27T02:32:09.383Z,99506.50
2022-11-27T02:34:58.865Z,99493.25
2022-11-27T02:37:47.470Z,99491.69
2022-11-27T02:40:42.471Z,99485.00
2022-11-27T02:43:24.788Z,99478.00
2022-11-27T02:45:52.753Z,99477.72
2022-11-27T02:48:27.096Z,99469.56
2022-11-27T02:50:55.738Z,99473.69
2022-11-27T02:53:39.286Z,99464.91
2022-11-27T02:56:14.740Z,99465.16
2022-11-27T02:58:42.343Z,99468.72
2022-11-27T03:01:12.370Z,99467.22
2022-11-27T03:03:47.896Z,99455.06
2022-11-27T03:06:24.933Z,99461.16
2022-11-27T03:09:00.353Z,99448.19
2022-11-27T03:11:30.689Z,99451.84
2022-11-27T03:14:07.578Z,99439.69
2022-11-27T03:16:48.259Z,99437.94
2022-11-27T03:19:42.125Z,99435.63
2022-11-27T03:22:09.071Z,99430.56
2022-11-27T03:24:36.571Z,99420.19
2022-11-27T03:27:05.168Z,99417.34
2022-11-27T03:29:51.323Z,99415.63
2022-11-27T03:32:18.419Z,99417.56
2022-11-27T03:34:46.655Z,99422.13
2022-11-27T03:37:13.582Z,99420.31
2022-11-27T03:39:40.316Z,99408.94
2022-11-27T03:42:27.325Z,99408.13
2022-11-27T03:45:37.748Z,99409.94
2022-11-27T03:48:50.360Z,99412.03
2022-11-27T03:51:36.139Z,99409.59
2022-11-27T03:54:15.288Z,99411.81
2022-11-27T03:56:56.415Z,99394.75
2022-11-27T03:59:33.944Z,99394.78
2022-11-27T04:02:00.471Z,99399.09
2022-11-27T04:04:27.010Z,99405.31
2022-11-27T04:06:53.515Z,99407.97
2022-11-27T04:09:20.206Z,99400.19
2022-11-27T04:11:46.667Z,99400.84
2022-11-27T04:14:13.134Z,99405.06
2022-11-27T04:16:39.647Z,99400.81
2022-11-27T04:19:06.336Z,99407.94
2022-11-27T04:21:32.812Z,99393.38
2022-11-27T04:23:59.241Z,99397.66
2022-11-27T04:26:25.704Z,99394.28
2022-11-27T04:28:52.192Z,99395.97
2022-11-27T04:31:18.769Z,99396.06
2022-11-27T04:33:45.285Z,99396.78
2022-11-27T04:36:11.760Z,99397.31
2022-11-27T04:38:38.208Z,99399.69
2022-11-27T04:41:04.974Z,99399.69
2022-11-27T04:43:31.436Z,99398.75
2022-11-27T04:45:57.941Z,99393.69
2022-11-27T04:48:24.483Z,99391.78
2022-11-27T04:50:50.979Z,99383.00
2022-11-27T04:53:17.476Z,99383.06
2022-11-27T04:55:43.985Z,99384.66
2022-11-27T04:58:10.508Z,99386.09
2022-11-27T05:00:37.087Z,99374.91
2022-11-27T05:03:03.674Z,99375.00
2022-11-27T05:05:30.157Z,99377.50
2022-11-27T05:07:56.682Z,99376.47
2022-11-27T05:10:23.213Z,99370.25
2022-11-27T05:12:49.751Z,99356.19
2022-11-27T05:15:16.312Z,99359.22
2022-11-27T05:17:42.759Z,99354.78
2022-11-27T05:20:09.782Z,99350.66
2022-11-27T05:22:36.393Z,99343.78
2022-11-27T05:25:02.867Z,99343.69
2022-11-27T05:27:29.376Z,99337.72
2022-11-27T05:29:55.949Z,99327.41
2022-11-27T05:32:22.435Z,99320.59
2022-11-27T05:34:49.651Z,99324.06
2022-11-27T05:37:19.459Z,99317.22
2022-11-27T05:39:46.752Z,99315.44
2022-11-27T05:42:13.333Z,99312.84
2022-11-27T05:44:39.955Z,99318.56
2022-11-27T05:47:06.819Z,99320.31
2022-11-27T05:49:33.313Z,99321.44
2022-11-27T05:51:59.788Z,99318.09
2022-11-27T05:54:26.445Z,99319.03
2022-11-27T05:56:52.885Z,99307.44
2022-11-27T05:59:19.438Z,99301.88
2022-11-27T06:01:46.120Z,99297.53
2022-11-27T06:04:12.624Z,99289.91
2022-11-27T06:06:39.095Z,99286.53
2022-11-27T06:09:10.890Z,99283.63
2022-11-27T06:11:38.995Z,99284.19
2022-11-27T06:14:10.895Z,99278.38
2022-11-27T06:16:37.608Z,99281.16
2022-11-27T06:19:04.295Z,99280.47
2022-11-27T06:21:30.785Z,99271.00
2022-11-27T06:23:57.607Z,99273.56
2022-11-27T06:26:29.172Z,99276.00
2022-11-27T06:28:58.184Z,99268.97
2022-11-27T06:31:29.510Z,99274.72
2022-11-27T06:33:57.408Z,99273.84
2022-11-27T06:36:29.249Z,99268.50
2022-11-27T06:38:55.937Z,99262.09
2022-11-27T06:41:26.578Z,99260.25
2022-11-27T06:43:54.733Z,99259.97
2022-11-27T06:46:23.551Z,99261.66
2022-11-27T06:48:53.854Z,99261.38
2022-11-27T06:51:24.865Z,99264.09
2022-11-27T06:53:53.047Z,99269.59
2022-11-27T06:56:26.092Z,99264.25
2022-11-27T06:58:56.158Z,99258.63
2022-11-27T07:01:25.480Z,99238.91
2022-11-27T07:03:52.189Z,99229.56
2022-11-27T07:06:22.826Z,99221.03
2022-11-27T07:08:49.786Z,99221.81
2022-11-27T07:11:28.197Z,99228.38
2022-11-27T07:13:58.548Z,99239.50
2022-11-27T07:16:26.441Z,99240.94
2022-11-27T07:18:57.688Z,99234.75
2022-11-27T07:21:25.246Z,99231.00
2022-11-27T07:23:52.028Z,99234.34
2022-11-27T07:26:22.634Z,99228.03
2022-11-27T07:28:49.722Z,99225.91
2022-11-27T07:31:20.829Z,99229.94
2022-11-27T07:33:47.548Z,99218.03
2022-11-27T07:36:18.338Z,99213.16
2022-11-27T07:38:46.359Z,99214.66
2022-11-27T07:41:14.203Z,99219.66
2022-11-27T07:43:43.390Z,99216.78
2022-11-27T07:46:28.014Z,99209.75
2022-11-27T07:48:54.507Z,99213.03
2022-11-27T07:51:22.503Z,99212.81
2022-11-27T07:53:51.714Z,99203.41
2022-11-27T07:56:19.807Z,99203.84
2022-11-27T07:58:47.421Z,99201.88
2022-11-27T08:01:18.512Z,99207.72
2022-11-27T08:03:46.145Z,99202.34
2022-11-27T08:06:25.588Z,99191.34
2022-11-27T08:08:55.873Z,99196.13
2022-11-27T08:11:32.979Z,99198.34
2022-11-27T08:14:06.019Z,99202.50
2022-11-27T08:16:35.450Z,99189.56
2022-11-27T08:19:02.711Z,99181.84
2022-11-27T08:21:30.176Z,99177.25
2022-11-27T08:23:58.089Z,99182.38
2022-11-27T08:26:27.561Z,99175.25
2022-11-27T08:28:54.981Z,99177.97
2022-11-27T08:31:21.917Z,99179.38
2022-11-27T08:33:48.737Z,99174.16
2022-11-27T08:36:18.302Z,99172.94
2022-11-27T08:38:46.485Z,99170.06
2022-11-27T08:41:13.273Z,99164.53
2022-11-27T08:43:39.730Z,99175.03
2022-11-27T08:46:07.865Z,99170.50
2022-11-27T08:48:35.062Z,99183.38
2022-11-27T08:51:11.236Z,99178.75
2022-11-27T08:53:38.562Z,99166.22
2022-11-27T08:56:21.316Z,99162.69
2022-11-27T08:58:48.945Z,99156.91
2022-11-27T09:01:25.875Z,99149.91
2022-11-27T09:03:53.048Z,99138.03
2022-11-27T09:06:23.471Z,99133.00
2022-11-27T09:08:50.536Z,99128.78
2022-11-27T09:11:20.275Z,99130.25
2022-11-27T09:13:47.604Z,99122.38
2022-11-27T09:16:17.376Z,99115.91
2022-11-27T09:18:46.315Z,99120.97
2022-11-27T09:21:15.148Z,99119.50
2022-11-27T09:23:42.489Z,99115.56
2022-11-27T09:26:15.088Z,99110.94
2022-11-27T09:28:42.684Z,99105.97
2022-11-27T09:31:12.667Z,99106.16
2022-11-27T09:33:41.227Z,99098.06
2022-11-27T09:36:17.808Z,99091.50
2022-11-27T09:38:45.048Z,99084.31
2022-11-27T09:41:11.716Z,99082.81
2022-11-27T09:44:00.542Z,99086.09
2022-11-27T09:46:35.424Z,99076.50
2022-11-27T09:49:07.807Z,99076.09
2022-11-27T09:51:50.949Z,99070.63
2022-11-27T09:54:26.556Z,99065.91
2022-11-27T09:56:56.168Z,99063.78
2022-11-27T09:59:33.440Z,99062.69
2022-11-27T10:02:00.070Z,99057.53
2022-11-27T10:04:30.332Z,99056.69
2022-11-27T10:07:14.942Z,99052.31
2022-11-27T10:10:24.540Z,99061.41
2022-11-27T10:13:22.834Z,99070.28
2022-11-27T10:15:58.279Z,99066.94
2022-11-27T10:18:48.429Z,99063.72
2022-11-27T10:21:40.350Z,99064.94
2022-11-27T10:24:56.154Z,99056.88
2022-11-27T10:27:47.375Z,99049.22
2022-11-27T10:30:18.962Z,99054.31
2022-11-27T10:32:56.281Z,99060.28
2022-11-27T10:35:30.551Z,99049.03
2022-11-27T10:38:07.214Z,99043.44
2022-11-27T10:41:04.919Z,99042.88
2022-11-27T10:43:31.495Z,99050.44
2022-11-27T10:46:10.545Z,99053.78
2022-11-27T10:48:37.221Z,99060.94
2022-11-27T10:51:03.798Z,99044.97
2022-11-27T10:53:37.161Z,99038.47
2022-11-27T10:56:12.444Z,99024.91
2022-11-27T10:58:55.175Z,99028.13
2022-11-27T11:01:24.447Z,99025.97
2022-11-27T11:04:14.223Z,99026.81
2022-11-27T11:06:50.532Z,99018.09
2022-11-27T11:09:34.711Z,99014.47
2022-11-27T11:12:16.788Z,99001.25
2022-11-27T11:14:58.720Z,99011.66
2022-11-27T11:17:28.833Z,99014.88
2022-11-27T11:19:55.511Z,99017.72
2022-11-27T11:22:22.680Z,99014.69
2022-11-27T11:24:53.114Z,99012.91
2022-11-27T11:27:26.892Z,99007.66
2022-11-27T11:29:56.456Z,99002.66
2022-11-27T11:32:32.100Z,99002.22
2022-11-27T11:35:08.492Z,99002.13
2022-11-27T11:37:41.037Z,98988.06
2022-11-27T11:40:16.057Z,98982.13
2022-11-27T11:42:57.957Z,98975.44
2022-11-27T11:45:32.831Z,98969.41
2022-11-27T11:48:27.659Z,98968.91
2022-11-27T11:51:11.647Z,98964.41
2022-11-27T11:53:39.440Z,98950.19
2022-11-27T11:56:40.503Z,98950.19
2022-11-27T11:59:43.735Z,98960.53
2022-11-27T12:02:52.694Z,98941.88
2022-11-27T12:05:30.068Z,98945.59
2022-11-27T12:08:34.832Z,98945.28
2022-11-27T12:11:18.994Z,98932.81
2022-11-27T12:13:57.825Z,98941.53
2022-11-27T12:16:48.280Z,98935.19
2022-11-27T12:19:40.257Z,98929.16
2022-11-27T12:22:37.222Z,98917.97
2022-11-27T12:26:01.352Z,98908.84
2022-11-27T12:28:37.885Z,98901.53
2022-11-27T12:31:32.556Z,98895.97
2022-11-27T12:34:16.578Z,98887.41
2022-11-27T12:36:55.213Z,98882.28
2022-11-27T12:39:32.508Z,98882.00
2022-11-27T12:42:34.990Z,98880.06
2022-11-27T12:45:16.477Z,98879.38
2022-11-27T12:47:53.323Z,98881.91
2022-11-27T12:50:47.454Z,98874.63
2022-11-27T12:53:33.219Z,98872.25
2022-11-27T12:56:28.521Z,98865.00
2022-11-27T12:59:11.033Z,98858.69
2022-11-27T13:01:45.596Z,98851.75
2022-11-27T13:04:37.277Z,98847.19
2022-11-27T13:07:18.819Z,98840.75
2022-11-27T13:10:03.207Z,98831.84
2022-11-27T13:12:58.959Z,98818.84
2022-11-27T13:15:37.196Z,98801.44
2022-11-27T13:18:19.945Z,98797.31
2022-11-27T13:20:52.335Z,98786.78
2022-11-27T13:23:21.159Z,98785.69
2022-11-27T13:25:55.820Z,98785.59
2022-11-27T13:28:53.985Z,98776.13
2022-11-27T13:31:27.132Z,98773.56
2022-11-27T13:34:03.388Z,98763.34
2022-11-27T13:36:46.889Z,98747.69
2022-11-27T13:39:32.770Z,98745.22
2022-11-27T13:42:22.282Z,98735.75
2022-11-27T13:44:57.502Z,98734.06
2022-11-27T13:47:29.257Z,98729.59
2022-11-27T13:50:31.089Z,98728.97
2022-11-27T13:53:04.619Z,98721.88
2022-11-27T13:55:37.896Z,98715.72
2022-11-27T13:58:06.687Z,98712.75
2022-11-27T14:00:45.708Z,98703.78
2022-11-27T14:03:27.144Z,98696.75
2022-11-27T14:05:54.254Z,98693.28
2022-11-27T14:08:34.095Z,98685.03
2022-11-27T14:11:09.477Z,98679.22
2022-11-27T14:13:46.499Z,98684.53
2022-11-27T14:16:34.680Z,98688.28
2022-11-27T14:19:25.652Z,98688.19
2022-11-27T14:21:53.830Z,98675.41
2022-11-27T14:24:44.139Z,98672.63
2022-11-27T14:27:24.460Z,98673.13
2022-11-27T14:29:52.186Z,98674.47
2022-11-27T14:32:21.095Z,98670.56
2022-11-27T14:34:48.984Z,98669.72
2022-11-27T14:37:27.852Z,98681.88
2022-11-27T14:39:55.542Z,98688.06
2022-11-27T14:42:29.805Z,98688.81
2022-11-27T14:45:07.471Z,98689.13
2022-11-27T14:47:35.476Z,98697.63
2022-11-27T14:50:03.902Z,98695.00
2022-11-27T14:52:31.506Z,98698.38
2022-11-27T14:55:00.905Z,98703.88
2022-11-27T14:57:30.087Z,98708.03
2022-11-27T15:00:29.030Z,98698.19
2022-11-27T15:03:06.880Z,98698.88
2022-11-27T15:05:37.600Z,98698.34
2022-11-27T15:08:09.513Z,98694.63
2022-11-27T15:10:41.674Z,98704.66
2022-11-27T15:13:23.163Z,98701.78
2022-11-27T15:16:25.059Z,98700.41
2022-11-27T15:19:21.436Z,98701.34
2022-11-27T15:21:50.431Z,98699.38
2022-11-27T15:24:34.658Z,98698.44
2022-11-27T15:27:27.680Z,98689.88
2022-11-27T15:30:10.171Z,98696.13
2022-11-27T15:32:54.553Z,98677.44
2022-11-27T15:35:36.250Z,98676.69
2022-11-27T15:38:10.633Z,98682.44
2022-11-27T15:40:40.913Z,98705.09
2022-11-27T15:43:16.193Z,98707.03
2022-11-27T15:45:44.693Z,98705.25
2022-11-27T15:48:21.022Z,98696.66
2022-11-27T15:50:51.592Z,98681.44
2022-11-27T15:53:18.673Z,98677.53
2022-11-27T15:55:45.240Z,98682.59
2022-11-27T15:58:11.733Z,98677.09
2022-11-27T16:00:38.314Z,98686.63
2022-11-27T16:03:04.892Z,98682.94
2022-11-27T16:05:31.387Z,98684.63
2022-11-27T16:07:58.081Z,98679.56
2022-11-27T16:10:24.754Z,98688.25
2022-11-27T16:12:54.813Z,98688.00
2022-11-27T16:15:23.251Z,98688.34
2022-11-27T16:17:50.714Z,98686.06
2022-11-27T16:20:17.390Z,98687.91
2022-11-27T16:22:43.926Z,98681.06
2022-11-27T16:25:10.431Z,98674.47
2022-11-27T16:27:37.218Z,98674.41
2022-11-27T16:30:04.672Z,98667.38
2022-11-27T16:32:31.116Z,98673.09
2022-11-27T16:34:57.748Z,98659.66
2022-11-27T16:37:24.334Z,98655.25
2022-11-27T16:39:50.826Z,98650.03
2022-11-27T16:42:17.309Z,98651.69
2022-11-27T16:44:44.432Z,98642.47
2022-11-27T16:47:11.658Z,98641.03
2022-11-27T16:49:38.171Z,98640.63
2022-11-27T16:52:04.659Z,98625.69
2022-11-27T16:54:31.141Z,98623.81
2022-11-27T16:56:57.587Z,98613.75
2022-11-27T16:59:24.108Z,98625.06
2022-11-27T17:01:50.580Z,98614.59
2022-11-27T17:04:19.977Z,98608.25
2022-11-27T17:06:49.240Z,98604.72
2022-11-27T17:09:16.624Z,98613.34
2022-11-27T17:11:48.596Z,98612.47
2022-11-27T17:14:16.222Z,98612.34
2022-11-27T17:16:43.012Z,98604.44
2022-11-27T17:19:13.712Z,98597.69
2022-11-27T17:21:41.010Z,98591.50
2022-11-27T17:24:15.250Z,98593.97
2022-11-27T17:26:43.436Z,98588.38
2022-11-27T17:29:13.309Z,98588.13
2022-11-27T17:31:40.071Z,98572.81
2022-11-27T17:34:07.709Z,98567.84
2022-11-27T17:36:37.344Z,98551.53
2022-11-27T17:39:06.113Z,98545.03
2022-11-27T17:41:33.432Z,98543.09
2022-11-27T17:44:00.468Z,98543.34
2022-11-27T17:46:28.933Z,98535.81
2022-11-27T17:48:59.032Z,98525.44
2022-11-27T17:51:27.968Z,98514.53
2022-11-27T17:53:54.471Z,98514.31
2022-11-27T17:56:22.290Z,98506.41
2022-11-27T17:58:48.956Z,98499.38
2022-11-27T18:01:22.289Z,98503.84
2022-11-27T18:03:49.292Z,98492.78
2022-11-27T18:06:19.025Z,98481.88
2022-11-27T18:08:47.552Z,98476.31
2022-11-27T18:11:21.990Z,98486.03
2022-11-27T18:13:49.576Z,98485.94
2022-11-27T18:16:30.521Z,98480.53
2022-11-27T18:18:59.440Z,98478.59
2022-11-27T18:21:31.011Z,98474.38
2022-11-27T18:24:22.527Z,98473.94
2022-11-27T18:27:07.080Z,98465.66
2022-11-27T18:29:32.904Z,98467.72
2022-11-27T18:31:59.492Z,98462.31
2022-11-27T18:34:26.080Z,98456.28
2022-11-27T18:36:57.053Z,98458.59
2022-11-27T18:39:23.658Z,98452.91
2022-11-27T18:41:50.139Z,98443.63
2022-11-27T18:44:16.613Z,98439.88
2022-11-27T18:46:43.103Z,98438.31
2022-11-27T18:49:09.612Z,98440.41
2022-11-27T18:51:36.136Z,98435.25
2022-11-27T18:54:02.623Z,98431.28
2022-11-27T18:56:31.938Z,98433.22
2022-11-27T18:59:05.856Z,98442.19
2022-11-27T19:01:41.208Z,98435.59
2022-11-27T19:04:10.495Z,98441.66
2022-11-27T19:06:39.341Z,98436.00
2022-11-27T19:09:06.589Z,98432.84
2022-11-27T19:11:34.855Z,98431.09
2022-11-27T19:14:01.859Z,98430.22
2022-11-27T19:16:33.944Z,98439.44
2022-11-27T19:19:03.263Z,98440.13
2022-11-27T19:21:33.325Z,98431.94
2022-11-27T19:24:02.794Z,98431.06
2022-11-27T19:26:36.400Z,98435.53
2022-11-27T19:29:08.064Z,98425.81
2022-11-27T19:31:39.148Z,98422.03
2022-11-27T19:34:07.358Z,98405.13
2022-11-27T19:39:11.444Z,98408.38
2022-11-27T19:41:38.189Z,98392.47
2022-11-27T19:44:05.836Z,98385.69
2022-11-27T19:46:37.885Z,98388.66
2022-11-27T19:49:08.905Z,98385.47
2022-11-27T19:51:38.253Z,98387.22
2022-11-27T19:54:10.193Z,98397.22
2022-11-27T19:56:38.723Z,98390.22
2022-11-27T19:59:06.636Z,98383.38
2022-11-27T20:01:33.457Z,98375.50
2022-11-27T20:04:00.206Z,98365.31
2022-11-27T20:06:27.711Z,98361.44
2022-11-27T20:09:00.734Z,98369.88
2022-11-27T20:11:34.297Z,98381.19
2022-11-27T20:14:02.449Z,98383.56
2022-11-27T20:16:29.350Z,98389.84
2022-11-27T20:18:56.013Z,98383.75
2022-11-27T20:21:25.885Z,98381.72
2022-11-27T20:23:54.164Z,98379.78
2022-11-27T20:26:24.379Z,98367.44
2022-11-27T20:28:52.952Z,98368.38
2022-11-27T20:31:26.726Z,98359.84
2022-11-27T20:33:57.166Z,98344.84
2022-11-27T20:36:25.308Z,98349.81
2022-11-27T20:38:55.512Z,98357.81
2022-11-27T20:41:23.032Z,98364.16
2022-11-27T20:43:54.727Z,98364.16
2022-11-27T20:46:21.405Z,98359.44
2022-11-27T20:48:50.677Z,98359.59
2022-11-27T20:51:21.140Z,98346.94
2022-11-27T20:53:49.103Z,98335.31
2022-11-27T20:56:19.564Z,98335.72
2022-11-27T20:58:47.721Z,98341.53
2022-11-27T21:01:29.520Z,98347.19
2022-11-27T21:03:58.692Z,98348.13
2022-11-27T21:06:29.923Z,98347.78
2022-11-27T21:09:01.849Z,98343.06
2022-11-27T21:11:31.352Z,98330.81
2022-11-27T21:14:05.876Z,98314.53
2022-11-27T21:16:37.243Z,98313.72
2022-11-27T21:19:13.410Z,98318.09
2022-11-27T21:21:40.016Z,98308.78
2022-11-27T21:24:07.820Z,98311.34
2022-11-27T21:26:35.141Z,98304.50
2022-11-27T21:29:01.728Z,98320.03
2022-11-27T21:31:34.579Z,98330.13
2022-11-27T21:34:06.134Z,98320.44
2022-11-27T21:36:36.049Z,98314.19
2022-11-27T21:39:08.207Z,98327.88
2022-11-27T21:41:35.719Z,98319.66
2022-11-27T21:44:03.974Z,98307.66
2022-11-27T21:46:31.229Z,98301.47
2022-11-27T21:49:00.819Z,98296.97
2022-11-27T21:51:29.443Z,98295.91
2022-11-27T21:53:58.680Z,98290.75
2022-11-27T21:56:29.568Z,98294.25
2022-11-27T21:58:56.281Z,98287.72
2022-11-27T22:01:25.693Z,98280.22
2022-11-27T22:03:57.271Z,98280.28
2022-11-27T22:06:30.665Z,98278.56
2022-11-27T22:08:58.902Z,98279.97
2022-11-27T22:11:30.716Z,98286.44
2022-11-27T22:14:03.842Z,98285.06
2022-11-27T22:16:36.705Z,98288.47
2022-11-27T22:19:07.719Z,98268.91
2022-11-27T22:21:34.179Z,98289.47
2022-11-27T22:24:03.716Z,98266.22
2022-11-27T22:26:30.226Z,98269.34
2022-11-27T22:28:58.452Z,98260.75
2022-11-27T22:31:29.695Z,98274.59
2022-11-27T22:33:57.416Z,98271.03
2022-11-27T22:36:31.743Z,98260.41
2022-11-27T22:39:01.463Z,98274.75
2022-11-27T22:41:31.152Z,98272.91
2022-11-27T22:44:00.097Z,98256.28
2022-11-27T22:46:32.523Z,98254.50
2022-11-27T22:49:03.449Z,98246.38
2022-11-27T22:51:31.699Z,98240.97
2022-11-27T22:53:58.738Z,98245.03
2022-11-27T22:56:25.868Z,98239.38
2022-11-27T22:59:06.109Z,98240.97
2022-11-27T23:01:40.745Z,98240.13
2022-11-27T23:04:07.850Z,98246.38
2022-11-27T23:06:34.359Z,98240.44
2022-11-27T23:09:01.041Z,98237.34
2022-11-27T23:11:28.436Z,98239.56
2022-11-27T23:13:57.877Z,98237.56
2022-11-27T23:16:24.769Z,98248.75
2022-11-27T23:18:51.499Z,98245.97
2022-11-27T23:21:22.927Z,98226.31
2022-11-27T23:23:50.058Z,98230.72
2022-11-27T23:26:21.205Z,98229.09
2022-11-27T23:28:52.050Z,98233.97
2022-11-27T23:31:31.228Z,98229.16
2022-11-27T23:34:01.498Z,98218.22
2022-11-27T23:36:29.683Z,98224.13
2022-11-27T23:38:56.452Z,98215.44
2022-11-27T23:41:24.959Z,98223.00
2022-11-27T23:43:53.891Z,98225.31
2022-11-27T23:46:25.017Z,98224.69
2022-11-27T23:48:51.766Z,98212.72
2022-11-27T23:51:22.623Z,98208.66
2022-11-27T23:53:52.746Z,98205.19
2022-11-27T23:56:30.237Z,98203.75
2022-11-27T23:58:57.870Z,98203.06
